Spokane International Airport Spokane US
ICAO: KGEG
IATA: GEG
Category: Large
Scheduled Services: Yes

Elevation: 2376 ft
TransAlt. 18000 ft.

Airport Communications:
APP/DEP:123.75
ATIS:124.325
CLNC DEL:127.55
GND:121.9
ARNG:38.75
SEATTLE RDO:122.2
TWR:118.3
UNICOM:122.95

KGEG Zoom In..

Runways:

(A) RW 03 length 11002 ft width 150 ft
ILS 111.10 / hdg 27

(B) RW 07 length 8199 ft width 150 ft
---- / hdg 72

(C) RW 21 length 11002 ft width 150 ft
ILS 111.10 / hdg 207

(D) RW 25 length 8199 ft width 150 ft
---- / hdg 252

Location; KGEG
Day. 04 / Time. 16.53 Zulu
* Altimeter: 30.56
* Temperature: -03° c. -26.6°f.
* Wind from: 060° Speed 07 kn.
Dewpoint: -04° c.
Visibility: 1/8 Statute Miles.
Conditions: Freezing fog.

KGEG 041653Z 06007KT 1/8SM R21/0600V0800FT FZFG VV001 M03/M04 A3056 RMK AO2 SLP378 I1001 T10331044

Going to: --> -->


Wind From 060°
Speed 07 kn.

 
 
jpsmedia worldairports.se 2020   terms of use